createdAt,value
2018-04-17T00:00:07.498Z,10.83
2018-04-17T00:01:14.308Z,10.84
2018-04-17T00:02:21.151Z,10.87
2018-04-17T00:03:27.482Z,10.79
2018-04-17T00:04:38.468Z,10.79
2018-04-17T00:05:49.471Z,10.89
2018-04-17T00:06:56.523Z,10.98
2018-04-17T00:08:05.652Z,11.00
2018-04-17T00:09:17.530Z,11.03
2018-04-17T00:10:23.847Z,10.98
2018-04-17T00:11:30.055Z,10.93
2018-04-17T00:12:36.499Z,10.97
2018-04-17T00:13:42.881Z,10.91
2018-04-17T00:14:49.197Z,10.97
2018-04-17T00:15:55.605Z,10.94
2018-04-17T00:17:02.031Z,10.97
2018-04-17T00:18:08.435Z,11.00
2018-04-17T00:19:14.956Z,10.97
2018-04-17T00:20:21.898Z,10.97
2018-04-17T00:21:28.702Z,11.04
2018-04-17T00:22:36.482Z,10.95
2018-04-17T00:23:42.961Z,10.97
2018-04-17T00:24:49.592Z,10.90
2018-04-17T00:25:56.491Z,10.81
2018-04-17T00:27:03.019Z,10.72
2018-04-17T00:28:09.321Z,10.68
2018-04-17T00:29:17.707Z,10.64
2018-04-17T00:30:24.414Z,10.61
2018-04-17T00:31:30.532Z,10.60
2018-04-17T00:32:37.142Z,10.59
2018-04-17T00:33:43.557Z,10.55
2018-04-17T00:34:49.971Z,10.59
2018-04-17T00:35:56.383Z,10.57
2018-04-17T00:37:03.205Z,10.59
2018-04-17T00:38:10.566Z,10.62
2018-04-17T00:39:17.595Z,10.67
2018-04-17T00:40:24.197Z,10.70
2018-04-17T00:41:30.809Z,10.77
2018-04-17T00:42:37.327Z,10.80
2018-04-17T00:43:43.739Z,10.82
2018-04-17T00:44:50.256Z,10.83
2018-04-17T00:45:56.799Z,10.84
2018-04-17T00:47:03.389Z,10.89
2018-04-17T00:48:10.427Z,10.93
2018-04-17T00:49:16.945Z,11.01
2018-04-17T00:50:23.759Z,11.01
2018-04-17T00:51:30.178Z,10.99
2018-04-17T00:52:36.586Z,11.04
2018-04-17T00:54:09.160Z,11.05
2018-04-17T00:55:15.614Z,11.11
2018-04-17T00:56:22.130Z,11.11
2018-04-17T00:57:28.646Z,11.13
2018-04-17T00:58:35.654Z,11.13
2018-04-17T00:59:42.190Z,11.16
2018-04-17T01:00:48.910Z,11.12
2018-04-17T01:01:55.223Z,11.13
2018-04-17T01:03:02.362Z,11.17
2018-04-17T01:04:10.407Z,11.15
2018-04-17T01:05:16.928Z,11.18
2018-04-17T01:06:23.541Z,11.23
2018-04-17T01:07:29.813Z,11.22
2018-04-17T01:08:36.270Z,11.20
2018-04-17T01:09:42.477Z,11.19
2018-04-17T01:10:49.570Z,11.21
2018-04-17T01:11:56.978Z,11.23
2018-04-17T01:13:03.862Z,11.16
2018-04-17T01:14:10.394Z,11.18
2018-04-17T01:15:16.805Z,11.21
2018-04-17T01:16:23.317Z,11.20
2018-04-17T01:17:29.534Z,11.23
2018-04-17T01:18:35.921Z,11.18
2018-04-17T01:19:42.826Z,11.24
2018-04-17T01:20:49.178Z,11.19
2018-04-17T01:21:55.586Z,11.16
2018-04-17T01:23:02.217Z,11.13
2018-04-17T01:24:08.729Z,11.13
2018-04-17T01:25:14.937Z,11.16
2018-04-17T01:26:21.961Z,11.20
2018-04-17T01:27:28.474Z,11.20
2018-04-17T01:28:35.506Z,11.23
2018-04-17T01:29:42.596Z,11.15
2018-04-17T01:30:48.958Z,11.15
2018-04-17T01:31:55.572Z,11.15
2018-04-17T01:33:01.911Z,11.13
2018-04-17T01:34:08.183Z,11.16
2018-04-17T01:35:14.490Z,11.15
2018-04-17T01:36:21.022Z,11.14
2018-04-17T01:37:27.352Z,11.15
2018-04-17T01:38:34.569Z,11.16
2018-04-17T01:39:40.983Z,11.12
2018-04-17T01:40:47.395Z,11.09
2018-04-17T01:41:54.682Z,11.15
2018-04-17T01:43:01.402Z,11.09
2018-04-17T01:44:07.866Z,11.13
2018-04-17T01:45:14.878Z,11.13
2018-04-17T01:46:21.905Z,11.13
2018-04-17T01:47:28.444Z,11.17
2018-04-17T01:48:35.156Z,11.21
2018-04-17T01:49:41.575Z,11.22
2018-04-17T01:50:48.106Z,11.13
2018-04-17T01:51:55.120Z,11.11
2018-04-17T01:53:01.330Z,11.12
2018-04-17T01:54:08.406Z,11.12
2018-04-17T01:55:14.876Z,11.15
2018-04-17T01:56:21.853Z,11.12
2018-04-17T01:57:28.516Z,11.11
2018-04-17T01:58:34.631Z,11.11
2018-04-17T01:59:41.048Z,11.08
2018-04-17T02:00:47.452Z,11.10
2018-04-17T02:01:54.179Z,11.15
2018-04-17T02:03:00.394Z,11.17
2018-04-17T02:04:06.506Z,11.17
2018-04-17T02:05:13.554Z,11.23
2018-04-17T02:06:19.886Z,11.20
2018-04-17T02:07:26.353Z,11.20
2018-04-17T02:08:37.779Z,11.11
2018-04-17T02:09:44.743Z,11.15
2018-04-17T02:10:52.274Z,11.14
2018-04-17T02:11:59.680Z,11.15
2018-04-17T02:13:06.303Z,11.21
2018-04-17T02:14:15.997Z,11.19
2018-04-17T02:15:22.098Z,11.11
2018-04-17T02:16:28.516Z,11.06
2018-04-17T02:17:35.131Z,10.99
2018-04-17T02:18:41.654Z,10.99
2018-04-17T02:19:48.297Z,11.00
2018-04-17T02:20:54.580Z,11.03
2018-04-17T02:22:01.211Z,10.97
2018-04-17T02:23:07.496Z,10.96
2018-04-17T02:24:17.915Z,10.93
2018-04-17T02:25:24.811Z,10.90
2018-04-17T02:26:31.870Z,10.90
2018-04-17T02:27:38.386Z,10.95
2018-04-17T02:28:45.563Z,10.98
2018-04-17T02:29:52.856Z,10.96
2018-04-17T02:30:59.977Z,10.96
2018-04-17T02:32:05.488Z,10.97
2018-04-17T02:33:12.002Z,10.98
2018-04-17T02:34:18.207Z,10.92
2018-04-17T02:35:24.718Z,11.02
2018-04-17T02:36:31.138Z,11.03
2018-04-17T02:37:37.652Z,10.99
2018-04-17T02:38:43.963Z,10.99
2018-04-17T02:39:50.166Z,11.00
2018-04-17T02:40:56.589Z,11.01
2018-04-17T02:42:03.463Z,10.98
2018-04-17T02:43:10.551Z,10.98
2018-04-17T02:44:17.031Z,10.97
2018-04-17T02:45:23.681Z,10.99
2018-04-17T02:46:29.987Z,10.96
2018-04-17T02:47:36.513Z,11.02
2018-04-17T02:48:43.115Z,10.94
2018-04-17T02:49:49.925Z,10.96
2018-04-17T02:50:56.462Z,10.99
2018-04-17T02:52:02.870Z,11.02
2018-04-17T02:53:08.989Z,11.01
2018-04-17T02:54:15.468Z,11.00
2018-04-17T02:55:27.090Z,11.03
2018-04-17T02:56:36.413Z,10.99
2018-04-17T02:57:42.817Z,10.98
2018-04-17T02:58:49.446Z,10.96
2018-04-17T02:59:56.098Z,11.00
2018-04-17T03:01:02.696Z,10.92
2018-04-17T03:02:08.676Z,10.94
2018-04-17T03:03:15.918Z,10.94
2018-04-17T03:04:22.322Z,10.99
2018-04-17T03:05:28.646Z,10.98
2018-04-17T03:06:35.428Z,10.91
2018-04-17T03:07:42.584Z,10.88
2018-04-17T03:08:51.162Z,10.89
2018-04-17T03:09:58.292Z,10.91
2018-04-17T03:11:04.918Z,10.94
2018-04-17T03:12:12.242Z,10.93
2018-04-17T03:13:18.762Z,10.97
2018-04-17T03:14:25.198Z,11.00
2018-04-17T03:15:31.624Z,11.03
2018-04-17T03:16:43.547Z,11.07
2018-04-17T03:17:52.819Z,11.09
2018-04-17T03:18:59.978Z,11.11
2018-04-17T03:20:06.314Z,11.12
2018-04-17T03:21:12.767Z,11.09
2018-04-17T03:22:19.554Z,11.09
2018-04-17T03:23:28.453Z,11.03
2018-04-17T03:24:36.132Z,10.96
2018-04-17T03:25:43.024Z,10.95
2018-04-17T03:26:50.069Z,10.98
2018-04-17T03:27:56.482Z,11.01
2018-04-17T03:29:03.214Z,11.00
2018-04-17T03:30:09.807Z,11.03
2018-04-17T03:31:16.503Z,10.99
2018-04-17T03:32:23.054Z,10.94
2018-04-17T03:33:31.717Z,10.92
2018-04-17T03:34:37.927Z,10.94
2018-04-17T03:35:44.922Z,10.84
2018-04-17T03:36:51.475Z,10.87
2018-04-17T03:37:59.136Z,10.90
2018-04-17T03:39:06.267Z,10.96
2018-04-17T03:40:12.758Z,10.97
2018-04-17T03:41:19.498Z,11.01
2018-04-17T03:42:26.098Z,10.93
2018-04-17T03:43:32.620Z,10.87
2018-04-17T03:44:39.496Z,10.90
2018-04-17T03:45:45.539Z,10.85
2018-04-17T03:46:52.624Z,10.80
2018-04-17T03:47:58.683Z,10.81
2018-04-17T03:49:05.742Z,10.83
2018-04-17T03:50:13.057Z,10.84
2018-04-17T03:51:20.518Z,10.83
2018-04-17T03:52:26.922Z,10.69
2018-04-17T03:53:34.129Z,10.71
2018-04-17T03:54:42.855Z,10.71
2018-04-17T03:55:49.726Z,10.79
2018-04-17T03:56:56.443Z,10.76
2018-04-17T03:58:03.328Z,10.77
2018-04-17T03:59:09.784Z,10.88
2018-04-17T04:00:16.790Z,10.93
2018-04-17T04:01:24.150Z,10.95
2018-04-17T04:02:30.661Z,10.96
2018-04-17T04:03:37.414Z,10.72
2018-04-17T04:04:43.796Z,10.66
2018-04-17T04:05:50.218Z,10.56
2018-04-17T04:06:57.355Z,10.33
2018-04-17T04:08:04.364Z,10.31
2018-04-17T04:09:11.244Z,10.34
2018-04-17T04:10:19.043Z,10.25
2018-04-17T04:11:25.350Z,10.20
2018-04-17T04:12:31.774Z,10.08
2018-04-17T04:13:39.688Z,10.05
2018-04-17T04:14:46.753Z,10.10
2018-04-17T04:15:53.295Z,10.20
2018-04-17T04:17:10.530Z,10.16
2018-04-17T04:18:27.932Z,10.25
2018-04-17T04:19:45.971Z,10.13
2018-04-17T04:21:03.562Z,10.00
2018-04-17T04:22:20.929Z,9.91
2018-04-17T04:25:48.759Z,9.89
2018-04-17T04:27:08.131Z,9.85
2018-04-17T04:28:15.175Z,9.84
2018-04-17T04:29:21.696Z,9.83
2018-04-17T04:30:28.105Z,9.76
2018-04-17T04:31:35.042Z,9.83
2018-04-17T04:32:41.446Z,9.88
2018-04-17T04:33:47.861Z,9.85
2018-04-17T04:34:54.480Z,9.82
2018-04-17T04:36:00.792Z,9.79
2018-04-17T04:37:07.003Z,9.76
2018-04-17T04:38:13.122Z,9.73
2018-04-17T04:39:19.434Z,9.76
2018-04-17T04:40:25.791Z,9.75
2018-04-17T04:41:31.866Z,9.75
2018-04-17T04:42:38.257Z,9.74
2018-04-17T04:43:44.776Z,9.77
2018-04-17T04:44:51.286Z,9.85
2018-04-17T04:45:58.402Z,9.93
2018-04-17T04:47:04.832Z,10.01
2018-04-17T04:48:11.145Z,10.04
2018-04-17T04:49:17.713Z,10.08
2018-04-17T04:50:24.111Z,10.14
2018-04-17T04:51:30.557Z,10.22
2018-04-17T04:52:37.298Z,10.24
2018-04-17T04:53:44.309Z,10.34
2018-04-17T04:54:50.859Z,10.37
2018-04-17T04:55:57.388Z,10.40
2018-04-17T04:57:03.900Z,10.38
2018-04-17T04:58:10.400Z,10.33
2018-04-17T04:59:16.822Z,10.20
2018-04-17T05:00:23.339Z,10.13
2018-04-17T05:01:32.556Z,10.04
2018-04-17T05:02:40.627Z,9.97
2018-04-17T05:03:47.291Z,9.95
2018-04-17T05:04:53.938Z,9.96
2018-04-17T05:06:00.432Z,10.00
2018-04-17T05:07:06.941Z,10.00
2018-04-17T05:08:13.354Z,10.06
2018-04-17T05:09:19.866Z,10.23
2018-04-17T05:10:26.385Z,10.33
2018-04-17T05:11:33.530Z,10.34
2018-04-17T05:12:40.239Z,10.35
2018-04-17T05:13:46.345Z,10.43
2018-04-17T05:14:52.954Z,10.44
2018-04-17T05:15:59.584Z,10.49
2018-04-17T05:17:05.898Z,10.51
2018-04-17T05:18:12.308Z,10.50
2018-04-17T05:19:19.023Z,10.54
2018-04-17T05:20:25.956Z,10.56
2018-04-17T05:21:31.958Z,10.58
2018-04-17T05:22:42.205Z,10.50
2018-04-17T05:23:48.954Z,10.46
2018-04-17T05:24:55.709Z,10.51
2018-04-17T05:26:02.028Z,10.58
2018-04-17T05:27:08.529Z,10.61
2018-04-17T05:28:14.944Z,10.67
2018-04-17T05:29:21.876Z,10.76
2018-04-17T05:30:28.311Z,10.88
2018-04-17T05:31:34.810Z,10.91
2018-04-17T05:32:41.339Z,10.92
2018-04-17T05:33:47.941Z,11.01
2018-04-17T05:34:55.075Z,11.07
2018-04-17T05:36:01.494Z,11.12
2018-04-17T05:37:08.589Z,11.05
2018-04-17T05:38:15.128Z,11.06
2018-04-17T05:39:22.166Z,11.08
2018-04-17T05:40:29.394Z,11.17
2018-04-17T05:41:35.904Z,11.18
2018-04-17T05:42:42.477Z,11.18
2018-04-17T05:43:49.414Z,11.18
2018-04-17T05:44:55.976Z,11.20
2018-04-17T05:46:02.452Z,11.19
2018-04-17T05:47:09.099Z,11.23
2018-04-17T05:48:15.364Z,11.31
2018-04-17T05:49:21.965Z,11.35
2018-04-17T05:50:28.320Z,11.38
2018-04-17T05:51:34.968Z,11.41
2018-04-17T05:52:41.371Z,11.43
2018-04-17T05:53:47.656Z,11.54
2018-04-17T05:54:53.958Z,11.56
2018-04-17T05:56:00.306Z,11.56
2018-04-17T05:57:06.997Z,11.62
2018-04-17T05:58:13.351Z,11.50
2018-04-17T05:59:21.613Z,11.49
2018-04-17T06:00:29.214Z,11.57
2018-04-17T06:01:35.508Z,11.59
2018-04-17T06:02:41.855Z,11.67
2018-04-17T06:03:48.740Z,11.68
2018-04-17T06:04:55.045Z,11.71
2018-04-17T06:06:02.056Z,11.67
2018-04-17T06:07:08.942Z,11.72
2018-04-17T06:08:15.240Z,11.76
2018-04-17T06:09:22.116Z,11.81
2018-04-17T06:10:28.469Z,11.86
2018-04-17T06:11:34.765Z,11.81
2018-04-17T06:12:41.102Z,11.83
2018-04-17T06:13:47.405Z,11.92
2018-04-17T06:14:56.286Z,12.04
2018-04-17T06:16:03.725Z,12.10
2018-04-17T06:17:10.370Z,12.24
2018-04-17T06:18:16.648Z,12.11
2018-04-17T06:19:22.942Z,12.05
2018-04-17T06:20:28.819Z,12.09
2018-04-17T06:21:35.785Z,12.07
2018-04-17T06:22:42.143Z,12.08
2018-04-17T06:23:48.371Z,12.15
2018-04-17T06:24:54.608Z,12.06
2018-04-17T06:26:01.147Z,12.05
2018-04-17T06:27:08.391Z,12.09
2018-04-17T06:28:14.679Z,12.19
2018-04-17T06:29:21.005Z,12.28
2018-04-17T06:30:29.413Z,12.36
2018-04-17T06:31:36.752Z,12.51
2018-04-17T06:32:42.971Z,12.50
2018-04-17T06:33:49.327Z,12.52
2018-04-17T06:34:55.521Z,12.51
2018-04-17T06:36:01.788Z,12.51
2018-04-17T06:37:07.999Z,12.61
2018-04-17T06:38:14.240Z,12.68
2018-04-17T06:39:20.535Z,12.80
2018-04-17T06:40:26.789Z,12.85
2018-04-17T06:41:33.647Z,12.78
2018-04-17T06:42:39.903Z,12.75
2018-04-17T06:43:45.998Z,12.79
2018-04-17T06:44:52.313Z,12.76
2018-04-17T06:45:58.623Z,12.72
2018-04-17T06:47:06.338Z,12.77
2018-04-17T06:48:12.758Z,12.76
2018-04-17T06:49:19.003Z,12.83
2018-04-17T06:50:26.383Z,12.97
2018-04-17T06:51:32.639Z,12.98
2018-04-17T06:52:38.999Z,13.00
2018-04-17T06:53:45.492Z,12.89
2018-04-17T06:54:51.801Z,12.86
2018-04-17T06:55:58.578Z,12.93
2018-04-17T06:57:04.788Z,12.87
2018-04-17T06:58:10.767Z,12.89
2018-04-17T06:59:17.026Z,12.97
2018-04-17T07:00:23.326Z,13.08
2018-04-17T07:01:29.508Z,13.22
2018-04-17T07:02:35.778Z,13.10
2018-04-17T07:03:42.075Z,13.08
2018-04-17T07:04:48.383Z,13.14
2018-04-17T07:05:54.677Z,13.20
2018-04-17T07:07:00.899Z,13.17
2018-04-17T07:08:07.780Z,13.16
2018-04-17T07:09:14.052Z,13.22
2018-04-17T07:10:20.999Z,13.30
2018-04-17T07:11:27.309Z,13.27
2018-04-17T07:12:33.609Z,13.25
2018-04-17T07:13:39.920Z,13.21
2018-04-17T07:14:46.235Z,13.17
2018-04-17T07:15:52.509Z,13.25
2018-04-17T07:16:58.845Z,13.20
2018-04-17T07:18:04.940Z,13.28
2018-04-17T07:19:10.965Z,13.30
2018-04-17T07:20:17.299Z,13.35
2018-04-17T07:21:23.563Z,13.33
2018-04-17T07:22:32.371Z,13.34
2018-04-17T07:23:39.124Z,13.40
2018-04-17T07:24:46.197Z,13.45
2018-04-17T07:25:52.178Z,13.42
2018-04-17T07:26:58.406Z,13.41
2018-04-17T07:28:07.120Z,13.25
2018-04-17T07:29:15.047Z,13.29
2018-04-17T07:30:22.044Z,13.24
2018-04-17T07:31:28.331Z,13.33
2018-04-17T07:32:34.662Z,13.35
2018-04-17T07:33:41.007Z,13.33
2018-04-17T07:34:47.287Z,13.42
2018-04-17T07:35:53.605Z,13.50
2018-04-17T07:36:59.919Z,13.47
2018-04-17T07:38:08.919Z,13.49
2018-04-17T07:39:14.874Z,13.60
2018-04-17T07:40:21.200Z,13.68
2018-04-17T07:41:27.434Z,13.76
2018-04-17T07:42:34.367Z,13.82
2018-04-17T07:43:40.754Z,13.82
2018-04-17T07:44:47.079Z,13.98
2018-04-17T07:45:53.404Z,13.96
2018-04-17T07:47:10.879Z,13.96
2018-04-17T07:48:31.999Z,13.78
2018-04-17T07:49:37.718Z,13.78
2018-04-17T07:50:44.187Z,13.73
2018-04-17T07:51:50.516Z,13.84
2018-04-17T07:52:56.806Z,13.93
2018-04-17T07:54:03.078Z,13.96
2018-04-17T07:55:08.685Z,14.03
2018-04-17T07:56:15.465Z,14.04
2018-04-17T07:57:21.773Z,13.91
2018-04-17T07:58:27.963Z,14.10
2018-04-17T07:59:35.031Z,14.25
2018-04-17T08:00:41.334Z,14.18
2018-04-17T08:01:47.623Z,14.26
2018-04-17T08:02:54.639Z,14.39
2018-04-17T08:04:02.179Z,14.59
2018-04-17T08:05:10.186Z,14.70
2018-04-17T08:06:16.536Z,14.82
2018-04-17T08:07:22.939Z,14.62
2018-04-17T08:08:28.892Z,14.60
2018-04-17T08:09:35.246Z,14.38
2018-04-17T08:10:43.427Z,14.40
2018-04-17T08:11:51.850Z,14.58
2018-04-17T08:12:58.354Z,14.64
2018-04-17T08:14:05.246Z,14.70
2018-04-17T08:15:11.589Z,14.83
2018-04-17T08:16:18.353Z,15.03
2018-04-17T08:17:24.599Z,15.20
2018-04-17T08:18:30.910Z,15.38
2018-04-17T08:19:38.920Z,15.42
2018-04-17T08:20:46.146Z,15.33
2018-04-17T08:21:52.433Z,15.34
2018-04-17T08:22:58.732Z,15.40
2018-04-17T08:24:04.679Z,15.52
2018-04-17T08:25:11.171Z,15.73
2018-04-17T08:26:17.421Z,15.78
2018-04-17T08:27:23.647Z,15.58
2018-04-17T08:28:29.871Z,15.66
2018-04-17T08:29:36.206Z,15.81
2018-04-17T08:30:42.490Z,15.77
2018-04-17T08:31:48.811Z,15.74
2018-04-17T08:32:55.109Z,15.81
2018-04-17T08:34:01.420Z,15.88
2018-04-17T08:35:09.222Z,15.86
2018-04-17T08:36:16.439Z,15.89
2018-04-17T08:37:22.385Z,15.93
2018-04-17T08:38:28.599Z,15.88
2018-04-17T08:39:34.842Z,15.94
2018-04-17T08:40:41.795Z,16.01
2018-04-17T08:41:48.498Z,16.14
2018-04-17T08:42:54.814Z,16.28
2018-04-17T08:44:01.116Z,16.29
2018-04-17T08:45:07.418Z,16.32
2018-04-17T08:46:13.657Z,15.99
2018-04-17T08:47:19.926Z,15.84
2018-04-17T08:48:26.129Z,15.92
2018-04-17T08:49:32.347Z,15.75
2018-04-17T08:50:38.709Z,15.76
2018-04-17T08:51:44.989Z,15.78
2018-04-17T08:52:51.263Z,15.48
2018-04-17T08:53:57.488Z,15.54
2018-04-17T08:55:04.583Z,15.73
2018-04-17T08:56:11.354Z,15.98
2018-04-17T08:57:17.656Z,16.24
2018-04-17T08:58:23.838Z,16.40
2018-04-17T08:59:30.086Z,16.50
2018-04-17T09:00:36.414Z,16.22
2018-04-17T09:01:42.690Z,16.09
2018-04-17T09:02:49.732Z,16.17
2018-04-17T09:03:55.746Z,15.79
2018-04-17T09:05:02.048Z,15.76
2018-04-17T09:06:08.379Z,15.61
2018-04-17T09:07:14.956Z,15.78
2018-04-17T09:08:21.170Z,16.00
2018-04-17T09:09:27.495Z,16.29
2018-04-17T09:10:33.751Z,16.58
2018-04-17T09:11:41.257Z,16.38
2018-04-17T09:12:47.674Z,15.92
2018-04-17T09:13:54.109Z,15.81
2018-04-17T09:15:01.745Z,15.63
2018-04-17T09:16:08.073Z,15.78
2018-04-17T09:17:14.324Z,15.88
2018-04-17T09:18:20.529Z,16.02
2018-04-17T09:19:26.764Z,16.21
2018-04-17T09:20:33.411Z,16.17
2018-04-17T09:21:39.694Z,16.31
2018-04-17T09:22:45.888Z,16.62
2018-04-17T09:23:52.135Z,16.93
2018-04-17T09:24:58.615Z,16.91
2018-04-17T09:26:04.492Z,16.79
2018-04-17T09:27:15.240Z,16.35
2018-04-17T09:28:21.409Z,16.20
2018-04-17T09:29:27.635Z,16.43
2018-04-17T09:30:33.894Z,16.70
2018-04-17T09:31:40.179Z,16.80
2018-04-17T09:32:46.458Z,16.88
2018-04-17T09:33:52.703Z,16.50
2018-04-17T09:34:59.639Z,16.54
2018-04-17T09:36:05.778Z,16.79
2018-04-17T09:37:12.831Z,17.07
2018-04-17T09:38:19.158Z,17.19
2018-04-17T09:39:25.471Z,17.21
2018-04-17T09:40:31.690Z,17.40
2018-04-17T09:41:37.791Z,17.31
2018-04-17T09:42:45.035Z,17.35
2018-04-17T09:43:52.400Z,17.41
2018-04-17T09:44:58.680Z,17.17
2018-04-17T09:46:04.903Z,16.97
2018-04-17T09:47:11.195Z,16.50
2018-04-17T09:48:17.500Z,16.34
2018-04-17T09:49:23.730Z,16.34
2018-04-17T09:50:30.086Z,16.48
2018-04-17T09:51:36.546Z,16.77
2018-04-17T09:52:42.764Z,17.13
2018-04-17T09:53:49.058Z,17.21
2018-04-17T09:54:55.386Z,17.38
2018-04-17T09:56:02.173Z,17.47
2018-04-17T09:57:08.398Z,17.51
2018-04-17T09:58:14.620Z,17.66
2018-04-17T09:59:20.885Z,17.73
2018-04-17T10:00:26.894Z,17.78
2018-04-17T10:01:33.896Z,17.91
2018-04-17T10:02:40.186Z,17.87
2018-04-17T10:03:46.961Z,17.73
2018-04-17T10:04:53.914Z,17.78
2018-04-17T10:06:01.028Z,17.80
2018-04-17T10:07:08.531Z,17.85
2018-04-17T10:08:15.856Z,17.67
2018-04-17T10:09:23.101Z,17.43
2018-04-17T10:10:30.133Z,17.33
2018-04-17T10:11:37.394Z,17.54
2018-04-17T10:12:44.321Z,17.61
2018-04-17T10:13:51.797Z,17.61
2018-04-17T10:14:59.891Z,17.64
2018-04-17T10:16:07.555Z,17.51
2018-04-17T10:17:16.788Z,17.25
2018-04-17T10:18:28.465Z,17.42
2018-04-17T10:19:35.675Z,17.31
2018-04-17T10:20:42.440Z,17.18
2018-04-17T10:21:48.875Z,17.36
2018-04-17T10:22:56.828Z,17.27
2018-04-17T10:24:03.679Z,17.14
2018-04-17T10:25:10.810Z,17.22
2018-04-17T10:26:17.998Z,16.94
2018-04-17T10:27:24.904Z,16.95
2018-04-17T10:28:31.399Z,17.31
2018-04-17T10:29:41.896Z,17.21
2018-04-17T10:30:49.261Z,17.38
2018-04-17T10:31:56.189Z,17.08
2018-04-17T10:33:04.456Z,17.25
2018-04-17T10:34:11.837Z,17.50
2018-04-17T10:35:18.582Z,17.45
2018-04-17T10:36:25.375Z,17.79
2018-04-17T10:37:33.012Z,17.97
2018-04-17T10:38:43.848Z,17.49
2018-04-17T10:39:51.817Z,17.65
2018-04-17T10:41:00.320Z,17.63
2018-04-17T10:42:07.398Z,17.75
2018-04-17T10:43:14.547Z,18.00
2018-04-17T10:44:21.476Z,18.11
2018-04-17T10:45:28.516Z,18.10
2018-04-17T10:46:35.908Z,17.79
2018-04-17T10:47:42.877Z,17.78
2018-04-17T10:48:49.723Z,17.88
2018-04-17T10:49:56.623Z,18.10
2018-04-17T10:51:02.857Z,18.19
2018-04-17T10:52:09.113Z,18.49
2018-04-17T10:53:16.211Z,18.72
2018-04-17T10:54:24.436Z,18.72
2018-04-17T10:55:33.771Z,18.69
2018-04-17T10:56:39.991Z,18.78
2018-04-17T10:57:46.290Z,18.95
2018-04-17T10:58:53.226Z,18.79
2018-04-17T10:59:59.820Z,18.91
2018-04-17T11:01:05.639Z,18.96
2018-04-17T11:02:11.959Z,18.73
2018-04-17T11:03:18.628Z,18.57
2018-04-17T11:04:25.079Z,18.47
2018-04-17T11:05:31.435Z,18.60
2018-04-17T11:06:38.358Z,18.73
2018-04-17T11:07:45.696Z,18.76
2018-04-17T11:08:52.424Z,18.68
2018-04-17T11:09:58.770Z,18.58
2018-04-17T11:11:07.841Z,18.36
2018-04-17T11:12:14.944Z,17.73
2018-04-17T11:13:21.219Z,17.57
2018-04-17T11:14:27.501Z,17.67
2018-04-17T11:15:33.732Z,17.91
2018-04-17T11:16:40.317Z,18.12
2018-04-17T11:17:47.045Z,18.24
2018-04-17T11:18:59.409Z,17.97
2018-04-17T11:20:05.702Z,18.21
2018-04-17T11:21:12.410Z,18.32
2018-04-17T11:22:18.679Z,18.43
2018-04-17T11:23:24.966Z,18.49
2018-04-17T11:24:31.267Z,18.35
2018-04-17T11:25:38.410Z,18.38
2018-04-17T11:26:44.674Z,18.51
2018-04-17T11:27:50.937Z,18.58
2018-04-17T11:28:57.219Z,18.44
2018-04-17T11:30:03.436Z,18.60
2018-04-17T11:31:09.752Z,18.75
2018-04-17T11:32:16.082Z,18.70
2018-04-17T11:33:22.813Z,18.59
2018-04-17T11:34:29.142Z,18.44
2018-04-17T11:35:36.680Z,18.64
2018-04-17T11:36:42.935Z,18.73
2018-04-17T11:37:49.171Z,18.81
2018-04-17T11:38:55.568Z,18.91
2018-04-17T11:40:01.250Z,19.03
2018-04-17T11:41:07.602Z,18.98
2018-04-17T11:42:15.286Z,19.09
2018-04-17T11:43:22.542Z,19.15
2018-04-17T11:44:28.787Z,19.12
2018-04-17T11:45:35.082Z,19.13
2018-04-17T11:46:41.408Z,19.08
2018-04-17T11:47:47.730Z,18.99
2018-04-17T11:48:57.210Z,18.92
2018-04-17T11:50:03.511Z,18.83
2018-04-17T11:51:09.888Z,18.70
2018-04-17T11:52:16.443Z,18.70
2018-04-17T11:53:22.779Z,18.61
2018-04-17T11:54:29.052Z,18.48
2018-04-17T11:55:35.300Z,18.25
2018-04-17T11:56:41.581Z,18.36
2018-04-17T11:57:49.616Z,18.36
2018-04-17T11:58:57.619Z,18.48
2018-04-17T12:00:04.258Z,18.47
2018-04-17T12:01:10.513Z,18.29
2018-04-17T12:02:20.116Z,18.28
2018-04-17T12:03:28.603Z,18.25
2018-04-17T12:04:34.864Z,18.00
2018-04-17T12:05:41.172Z,17.94
2018-04-17T12:06:47.169Z,18.00
2018-04-17T12:07:53.162Z,18.24
2018-04-17T12:08:59.920Z,18.43
2018-04-17T12:10:05.995Z,18.65
2018-04-17T12:11:12.740Z,18.84
2018-04-17T12:12:19.162Z,19.02
2018-04-17T12:13:27.832Z,19.11
2018-04-17T12:14:34.857Z,19.21
2018-04-17T12:15:41.193Z,19.22
2018-04-17T12:16:47.507Z,19.30
2018-04-17T12:17:53.888Z,19.38
2018-04-17T12:18:59.986Z,19.55
2018-04-17T12:20:06.412Z,19.59
2018-04-17T12:21:12.744Z,19.28
2018-04-17T12:22:19.081Z,19.40
2018-04-17T12:23:25.512Z,19.35
2018-04-17T12:24:32.943Z,19.46
2018-04-17T12:25:39.203Z,19.55
2018-04-17T12:26:45.508Z,19.55
2018-04-17T12:27:51.865Z,19.70
2018-04-17T12:28:59.938Z,19.42
2018-04-17T12:30:06.190Z,19.71
2018-04-17T12:31:12.220Z,19.81
2018-04-17T12:32:18.478Z,19.82
2018-04-17T12:33:25.080Z,19.67
2018-04-17T12:34:31.631Z,19.38
2018-04-17T12:35:37.857Z,19.19
2018-04-17T12:36:44.152Z,19.24
2018-04-17T12:37:50.369Z,19.23
2018-04-17T12:38:56.711Z,19.30
2018-04-17T12:40:03.586Z,19.39
2018-04-17T12:41:09.930Z,19.54
2018-04-17T12:42:16.210Z,19.69
2018-04-17T12:43:22.464Z,19.67
2018-04-17T12:44:36.163Z,19.44
2018-04-17T12:45:42.375Z,19.32
2018-04-17T12:46:48.673Z,19.17
2018-04-17T12:47:55.020Z,19.12
2018-04-17T12:49:01.290Z,18.91
2018-04-17T12:50:07.582Z,18.76
2018-04-17T12:51:13.911Z,18.93
2018-04-17T12:52:20.236Z,19.02
2018-04-17T12:53:26.423Z,18.99
2018-04-17T12:54:32.778Z,18.98
2018-04-17T12:55:39.042Z,18.68
2018-04-17T12:56:45.362Z,18.54
2018-04-17T12:57:51.650Z,18.48
2018-04-17T12:58:57.892Z,18.47
2018-04-17T13:00:04.637Z,18.32
2018-04-17T13:01:10.881Z,18.19
2018-04-17T13:02:17.221Z,18.18
2018-04-17T13:03:23.531Z,18.11
2018-04-17T13:04:29.895Z,17.91
2018-04-17T13:05:36.150Z,17.91
2018-04-17T13:06:42.448Z,18.03
2018-04-17T13:07:49.302Z,18.18
2018-04-17T13:08:55.601Z,18.29
2018-04-17T13:10:01.944Z,18.46
2018-04-17T13:11:08.233Z,18.44
2018-04-17T13:12:14.618Z,18.39
2018-04-17T13:13:20.857Z,18.56
2018-04-17T13:14:27.192Z,18.74
2018-04-17T13:15:34.732Z,19.05
2018-04-17T13:16:42.703Z,19.19
2018-04-17T13:17:49.210Z,19.37
2018-04-17T13:18:55.497Z,19.57
2018-04-17T13:20:01.601Z,19.79
2018-04-17T13:21:07.618Z,19.90
2018-04-17T13:22:17.106Z,20.05
2018-04-17T13:23:23.398Z,20.27
2018-04-17T13:24:29.435Z,20.33
2018-04-17T13:25:36.525Z,20.29
2018-04-17T13:26:43.733Z,20.18
2018-04-17T13:27:50.250Z,19.97
2018-04-17T13:28:56.493Z,19.79
2018-04-17T13:30:02.823Z,19.84
2018-04-17T13:31:10.164Z,19.93
2018-04-17T13:32:17.749Z,19.88
2018-04-17T13:33:23.755Z,20.09
2018-04-17T13:34:29.983Z,20.15
2018-04-17T13:35:36.337Z,20.11
2018-04-17T13:36:42.327Z,20.11
2018-04-17T13:37:48.618Z,20.03
2018-04-17T13:38:54.834Z,19.99
2018-04-17T13:40:01.193Z,20.04
2018-04-17T13:41:07.442Z,20.11
2018-04-17T13:42:14.291Z,20.13
2018-04-17T13:43:20.605Z,20.01
2018-04-17T13:44:26.924Z,19.93
2018-04-17T13:45:33.226Z,19.89
2018-04-17T13:46:39.805Z,20.09
2018-04-17T13:47:47.381Z,20.19
2018-04-17T13:48:53.737Z,20.28
2018-04-17T13:50:00.207Z,20.32
2018-04-17T13:51:07.000Z,20.35
2018-04-17T13:52:13.309Z,20.02
2018-04-17T13:53:19.495Z,19.43
2018-04-17T13:54:25.798Z,19.38
2018-04-17T13:55:32.066Z,19.65
2018-04-17T13:56:38.396Z,19.72
2018-04-17T13:57:44.699Z,19.65
2018-04-17T13:58:51.011Z,19.89
2018-04-17T13:59:57.350Z,20.05
2018-04-17T14:01:03.865Z,20.18
2018-04-17T14:02:09.817Z,20.20
2018-04-17T14:03:16.023Z,20.22
2018-04-17T14:04:23.132Z,20.29
2018-04-17T14:05:29.499Z,20.29
2018-04-17T14:06:36.586Z,20.11
2018-04-17T14:07:43.659Z,20.02
2018-04-17T14:08:49.949Z,19.80
2018-04-17T14:09:56.292Z,19.90
2018-04-17T14:11:03.498Z,19.92
2018-04-17T14:12:09.800Z,20.16
2018-04-17T14:13:16.003Z,20.30
2018-04-17T14:14:22.256Z,20.39
2018-04-17T14:15:28.561Z,20.42
2018-04-17T14:16:34.961Z,20.47
2018-04-17T14:17:41.303Z,20.56
2018-04-17T14:18:47.615Z,20.80
2018-04-17T14:19:54.852Z,20.87
2018-04-17T14:21:01.143Z,21.05
2018-04-17T14:22:07.494Z,21.17
2018-04-17T14:23:14.294Z,21.31
2018-04-17T14:24:21.203Z,21.24